sensor_id;sensor_type;location;lat;lon;timestamp;P1;durP1;ratioP1;P2;durP2;ratioP2
34236;SDS011;20501;45.956;13.632;2022-08-19T00:00:32;7.90;;;4.40;;
34236;SDS011;20501;45.956;13.632;2022-08-19T00:02:57;13.52;;;4.32;;
34236;SDS011;20501;45.956;13.632;2022-08-19T00:05:22;13.18;;;4.85;;
34236;SDS011;20501;45.956;13.632;2022-08-19T00:07:48;13.48;;;4.30;;
34236;SDS011;20501;45.956;13.632;2022-08-19T00:10:14;11.45;;;3.92;;
34236;SDS011;20501;45.956;13.632;2022-08-19T00:12:41;13.30;;;3.75;;
34236;SDS011;20501;45.956;13.632;2022-08-19T00:15:08;7.75;;;3.78;;
34236;SDS011;20501;45.956;13.632;2022-08-19T00:17:41;9.80;;;3.25;;
34236;SDS011;20501;45.956;13.632;2022-08-19T00:20:09;5.88;;;3.25;;
34236;SDS011;20501;45.956;13.632;2022-08-19T00:22:37;12.15;;;3.58;;
34236;SDS011;20501;45.956;13.632;2022-08-19T00:25:03;8.32;;;3.72;;
34236;SDS011;20501;45.956;13.632;2022-08-19T00:27:30;12.18;;;4.30;;
34236;SDS011;20501;45.956;13.632;2022-08-19T00:29:56;9.88;;;4.78;;
34236;SDS011;20501;45.956;13.632;2022-08-19T00:32:21;16.27;;;3.95;;
34236;SDS011;20501;45.956;13.632;2022-08-19T00:34:47;10.60;;;4.47;;
34236;SDS011;20501;45.956;13.632;2022-08-19T00:37:12;12.32;;;3.90;;
34236;SDS011;20501;45.956;13.632;2022-08-19T00:39:38;10.02;;;3.88;;
34236;SDS011;20501;45.956;13.632;2022-08-19T00:42:03;12.30;;;4.63;;
34236;SDS011;20501;45.956;13.632;2022-08-19T00:44:29;13.90;;;5.07;;
34236;SDS011;20501;45.956;13.632;2022-08-19T00:46:56;20.17;;;5.23;;
34236;SDS011;20501;45.956;13.632;2022-08-19T00:49:43;9.65;;;4.15;;
34236;SDS011;20501;45.956;13.632;2022-08-19T00:52:17;12.90;;;4.70;;
34236;SDS011;20501;45.956;13.632;2022-08-19T00:54:45;14.20;;;5.00;;
34236;SDS011;20501;45.956;13.632;2022-08-19T00:57:14;8.00;;;4.07;;
34236;SDS011;20501;45.956;13.632;2022-08-19T00:59:42;13.60;;;4.15;;
34236;SDS011;20501;45.956;13.632;2022-08-19T01:02:12;13.57;;;5.65;;
34236;SDS011;20501;45.956;13.632;2022-08-19T01:04:39;7.72;;;4.25;;
34236;SDS011;20501;45.956;13.632;2022-08-19T01:07:04;14.57;;;5.10;;
34236;SDS011;20501;45.956;13.632;2022-08-19T01:09:30;15.88;;;5.55;;
34236;SDS011;20501;45.956;13.632;2022-08-19T01:11:56;15.97;;;4.40;;
34236;SDS011;20501;45.956;13.632;2022-08-19T01:14:22;10.93;;;4.53;;
34236;SDS011;20501;45.956;13.632;2022-08-19T01:16:48;5.60;;;3.97;;
34236;SDS011;20501;45.956;13.632;2022-08-19T01:19:23;7.75;;;3.83;;
34236;SDS011;20501;45.956;13.632;2022-08-19T01:21:57;11.40;;;4.00;;
34236;SDS011;20501;45.956;13.632;2022-08-19T01:24:27;9.52;;;3.55;;
34236;SDS011;20501;45.956;13.632;2022-08-19T01:26:53;14.48;;;3.88;;
34236;SDS011;20501;45.956;13.632;2022-08-19T01:29:19;9.43;;;3.65;;
34236;SDS011;20501;45.956;13.632;2022-08-19T01:31:45;11.32;;;3.63;;
34236;SDS011;20501;45.956;13.632;2022-08-19T01:34:10;6.70;;;3.67;;
34236;SDS011;20501;45.956;13.632;2022-08-19T01:36:40;10.05;;;3.90;;
34236;SDS011;20501;45.956;13.632;2022-08-19T01:39:11;12.07;;;3.88;;
34236;SDS011;20501;45.956;13.632;2022-08-19T01:41:38;14.70;;;3.47;;
34236;SDS011;20501;45.956;13.632;2022-08-19T01:44:04;12.55;;;4.15;;
34236;SDS011;20501;45.956;13.632;2022-08-19T01:46:32;12.85;;;3.63;;
34236;SDS011;20501;45.956;13.632;2022-08-19T01:48:57;17.02;;;4.30;;
34236;SDS011;20501;45.956;13.632;2022-08-19T01:51:24;12.88;;;4.30;;
34236;SDS011;20501;45.956;13.632;2022-08-19T01:53:50;14.40;;;4.45;;
34236;SDS011;20501;45.956;13.632;2022-08-19T01:56:17;17.52;;;4.93;;
34236;SDS011;20501;45.956;13.632;2022-08-19T01:58:45;14.20;;;4.60;;
34236;SDS011;20501;45.956;13.632;2022-08-19T02:01:36;14.82;;;5.05;;
34236;SDS011;20501;45.956;13.632;2022-08-19T02:04:02;18.92;;;4.57;;
34236;SDS011;20501;45.956;13.632;2022-08-19T02:06:27;9.18;;;3.70;;
34236;SDS011;20501;45.956;13.632;2022-08-19T02:08:53;17.13;;;4.60;;
34236;SDS011;20501;45.956;13.632;2022-08-19T02:11:25;9.07;;;4.23;;
34236;SDS011;20501;45.956;13.632;2022-08-19T02:13:54;11.73;;;4.85;;
34236;SDS011;20501;45.956;13.632;2022-08-19T02:16:20;11.23;;;4.43;;
34236;SDS011;20501;45.956;13.632;2022-08-19T02:18:46;12.95;;;3.90;;
34236;SDS011;20501;45.956;13.632;2022-08-19T02:21:13;7.40;;;3.67;;
34236;SDS011;20501;45.956;13.632;2022-08-19T02:23:43;8.60;;;3.17;;
34236;SDS011;20501;45.956;13.632;2022-08-19T02:26:09;12.52;;;4.10;;
34236;SDS011;20501;45.956;13.632;2022-08-19T02:28:35;11.60;;;3.75;;
34236;SDS011;20501;45.956;13.632;2022-08-19T02:31:01;10.80;;;4.05;;
34236;SDS011;20501;45.956;13.632;2022-08-19T02:33:27;13.85;;;4.07;;
34236;SDS011;20501;45.956;13.632;2022-08-19T02:35:53;13.45;;;4.65;;
34236;SDS011;20501;45.956;13.632;2022-08-19T02:38:19;20.10;;;5.20;;
34236;SDS011;20501;45.956;13.632;2022-08-19T02:40:51;18.83;;;6.15;;
34236;SDS011;20501;45.956;13.632;2022-08-19T02:43:22;10.82;;;4.35;;
34236;SDS011;20501;45.956;13.632;2022-08-19T02:45:48;20.42;;;4.65;;
34236;SDS011;20501;45.956;13.632;2022-08-19T02:48:21;12.05;;;4.03;;
34236;SDS011;20501;45.956;13.632;2022-08-19T02:50:49;12.02;;;3.40;;
34236;SDS011;20501;45.956;13.632;2022-08-19T02:53:20;14.43;;;3.60;;
34236;SDS011;20501;45.956;13.632;2022-08-19T02:55:48;9.68;;;2.97;;
34236;SDS011;20501;45.956;13.632;2022-08-19T02:58:14;11.52;;;4.07;;
34236;SDS011;20501;45.956;13.632;2022-08-19T03:00:44;8.68;;;3.17;;
34236;SDS011;20501;45.956;13.632;2022-08-19T03:03:12;12.93;;;3.40;;
34236;SDS011;20501;45.956;13.632;2022-08-19T03:05:38;9.68;;;3.17;;
34236;SDS011;20501;45.956;13.632;2022-08-19T03:08:04;12.10;;;3.03;;
34236;SDS011;20501;45.956;13.632;2022-08-19T03:10:30;7.65;;;3.05;;
34236;SDS011;20501;45.956;13.632;2022-08-19T03:12:57;11.45;;;3.33;;
34236;SDS011;20501;45.956;13.632;2022-08-19T03:15:22;10.50;;;3.13;;
34236;SDS011;20501;45.956;13.632;2022-08-19T03:17:47;11.82;;;3.47;;
34236;SDS011;20501;45.956;13.632;2022-08-19T03:20:13;10.00;;;2.90;;
34236;SDS011;20501;45.956;13.632;2022-08-19T03:22:38;14.38;;;3.40;;
34236;SDS011;20501;45.956;13.632;2022-08-19T03:25:04;9.68;;;3.55;;
34236;SDS011;20501;45.956;13.632;2022-08-19T03:27:29;10.57;;;3.35;;
34236;SDS011;20501;45.956;13.632;2022-08-19T03:29:55;5.43;;;2.85;;
34236;SDS011;20501;45.956;13.632;2022-08-19T03:32:21;9.40;;;3.40;;
34236;SDS011;20501;45.956;13.632;2022-08-19T03:34:47;9.77;;;3.50;;
34236;SDS011;20501;45.956;13.632;2022-08-19T03:37:13;10.90;;;2.70;;
34236;SDS011;20501;45.956;13.632;2022-08-19T03:39:39;9.55;;;2.83;;
34236;SDS011;20501;45.956;13.632;2022-08-19T03:42:07;6.38;;;2.38;;
34236;SDS011;20501;45.956;13.632;2022-08-19T03:44:33;10.07;;;2.58;;
34236;SDS011;20501;45.956;13.632;2022-08-19T03:46:59;15.00;;;2.83;;
34236;SDS011;20501;45.956;13.632;2022-08-19T03:49:26;9.23;;;3.25;;
34236;SDS011;20501;45.956;13.632;2022-08-19T03:51:53;6.55;;;2.63;;
34236;SDS011;20501;45.956;13.632;2022-08-19T03:54:20;13.68;;;3.42;;
34236;SDS011;20501;45.956;13.632;2022-08-19T03:56:51;6.35;;;2.83;;
34236;SDS011;20501;45.956;13.632;2022-08-19T03:59:23;4.35;;;2.13;;
34236;SDS011;20501;45.956;13.632;2022-08-19T04:01:51;6.55;;;2.58;;
34236;SDS011;20501;45.956;13.632;2022-08-19T04:04:19;11.75;;;2.75;;
34236;SDS011;20501;45.956;13.632;2022-08-19T04:06:44;6.07;;;2.08;;
34236;SDS011;20501;45.956;13.632;2022-08-19T04:09:12;5.85;;;1.85;;
34236;SDS011;20501;45.956;13.632;2022-08-19T04:11:39;8.40;;;2.03;;
34236;SDS011;20501;45.956;13.632;2022-08-19T04:14:06;8.27;;;2.50;;
34236;SDS011;20501;45.956;13.632;2022-08-19T04:16:33;7.03;;;2.75;;
34236;SDS011;20501;45.956;13.632;2022-08-19T04:18:59;9.80;;;2.72;;
34236;SDS011;20501;45.956;13.632;2022-08-19T04:21:27;5.35;;;2.30;;
34236;SDS011;20501;45.956;13.632;2022-08-19T04:23:53;7.20;;;2.92;;
34236;SDS011;20501;45.956;13.632;2022-08-19T04:26:24;10.75;;;2.67;;
34236;SDS011;20501;45.956;13.632;2022-08-19T04:28:52;6.57;;;2.55;;
34236;SDS011;20501;45.956;13.632;2022-08-19T04:31:19;6.85;;;2.15;;
34236;SDS011;20501;45.956;13.632;2022-08-19T04:33:50;12.73;;;3.00;;
34236;SDS011;20501;45.956;13.632;2022-08-19T04:36:24;8.52;;;2.88;;
34236;SDS011;20501;45.956;13.632;2022-08-19T04:38:55;13.00;;;2.88;;
34236;SDS011;20501;45.956;13.632;2022-08-19T04:41:23;13.98;;;2.80;;
34236;SDS011;20501;45.956;13.632;2022-08-19T04:44:09;8.40;;;2.80;;
34236;SDS011;20501;45.956;13.632;2022-08-19T04:46:35;5.75;;;2.60;;
34236;SDS011;20501;45.956;13.632;2022-08-19T04:49:02;8.75;;;2.35;;
34236;SDS011;20501;45.956;13.632;2022-08-19T04:51:30;7.22;;;1.70;;
34236;SDS011;20501;45.956;13.632;2022-08-19T04:53:56;8.50;;;2.15;;
34236;SDS011;20501;45.956;13.632;2022-08-19T04:56:22;6.77;;;1.67;;
34236;SDS011;20501;45.956;13.632;2022-08-19T04:58:51;9.07;;;2.30;;
34236;SDS011;20501;45.956;13.632;2022-08-19T05:01:18;10.68;;;2.60;;
34236;SDS011;20501;45.956;13.632;2022-08-19T05:03:55;10.00;;;2.40;;
34236;SDS011;20501;45.956;13.632;2022-08-19T05:06:22;9.07;;;3.20;;
34236;SDS011;20501;45.956;13.632;2022-08-19T05:08:48;6.68;;;2.03;;
34236;SDS011;20501;45.956;13.632;2022-08-19T05:11:16;7.10;;;1.70;;
34236;SDS011;20501;45.956;13.632;2022-08-19T05:13:43;2.58;;;1.15;;
34236;SDS011;20501;45.956;13.632;2022-08-19T05:16:10;4.40;;;1.00;;
34236;SDS011;20501;45.956;13.632;2022-08-19T05:18:37;5.43;;;1.20;;
34236;SDS011;20501;45.956;13.632;2022-08-19T05:21:22;5.28;;;1.77;;
34236;SDS011;20501;45.956;13.632;2022-08-19T05:24:07;4.47;;;0.93;;
34236;SDS011;20501;45.956;13.632;2022-08-19T05:26:38;3.40;;;1.15;;
34236;SDS011;20501;45.956;13.632;2022-08-19T05:29:06;5.50;;;0.95;;
34236;SDS011;20501;45.956;13.632;2022-08-19T05:33:59;2.78;;;1.13;;
34236;SDS011;20501;45.956;13.632;2022-08-19T05:36:28;5.53;;;1.02;;
34236;SDS011;20501;45.956;13.632;2022-08-19T05:38:59;4.07;;;0.82;;
34236;SDS011;20501;45.956;13.632;2022-08-19T05:41:25;2.97;;;0.93;;
34236;SDS011;20501;45.956;13.632;2022-08-19T05:43:54;2.05;;;1.20;;
34236;SDS011;20501;45.956;13.632;2022-08-19T05:46:21;3.92;;;0.82;;
34236;SDS011;20501;45.956;13.632;2022-08-19T05:48:47;3.67;;;0.70;;
34236;SDS011;20501;45.956;13.632;2022-08-19T05:51:13;2.67;;;0.87;;
34236;SDS011;20501;45.956;13.632;2022-08-19T05:53:39;2.05;;;0.80;;
34236;SDS011;20501;45.956;13.632;2022-08-19T05:56:08;2.20;;;0.75;;
34236;SDS011;20501;45.956;13.632;2022-08-19T05:58:37;3.47;;;1.00;;
34236;SDS011;20501;45.956;13.632;2022-08-19T06:01:04;1.75;;;0.75;;
34236;SDS011;20501;45.956;13.632;2022-08-19T06:03:35;2.78;;;1.25;;
34236;SDS011;20501;45.956;13.632;2022-08-19T06:06:02;2.40;;;1.02;;
34236;SDS011;20501;45.956;13.632;2022-08-19T06:08:28;6.83;;;0.80;;
34236;SDS011;20501;45.956;13.632;2022-08-19T06:10:54;4.00;;;1.35;;
34236;SDS011;20501;45.956;13.632;2022-08-19T06:13:20;1.27;;;0.80;;
34236;SDS011;20501;45.956;13.632;2022-08-19T06:15:46;3.50;;;0.93;;
34236;SDS011;20501;45.956;13.632;2022-08-19T06:18:12;2.88;;;1.20;;
34236;SDS011;20501;45.956;13.632;2022-08-19T06:20:39;3.88;;;1.05;;
34236;SDS011;20501;45.956;13.632;2022-08-19T06:23:05;3.60;;;0.83;;
34236;SDS011;20501;45.956;13.632;2022-08-19T06:25:30;2.58;;;0.90;;
34236;SDS011;20501;45.956;13.632;2022-08-19T06:27:55;3.20;;;0.80;;
34236;SDS011;20501;45.956;13.632;2022-08-19T06:30:21;2.58;;;1.00;;
34236;SDS011;20501;45.956;13.632;2022-08-19T06:32:46;3.88;;;1.45;;
34236;SDS011;20501;45.956;13.632;2022-08-19T06:35:12;2.40;;;0.88;;
34236;SDS011;20501;45.956;13.632;2022-08-19T06:40:04;3.83;;;1.20;;
34236;SDS011;20501;45.956;13.632;2022-08-19T06:42:30;6.30;;;1.33;;
34236;SDS011;20501;45.956;13.632;2022-08-19T06:44:56;2.08;;;1.10;;
34236;SDS011;20501;45.956;13.632;2022-08-19T06:47:22;2.60;;;1.20;;
34236;SDS011;20501;45.956;13.632;2022-08-19T06:49:48;2.45;;;0.90;;
34236;SDS011;20501;45.956;13.632;2022-08-19T06:52:14;1.77;;;0.77;;
34236;SDS011;20501;45.956;13.632;2022-08-19T06:54:40;0.98;;;0.70;;
34236;SDS011;20501;45.956;13.632;2022-08-19T06:57:07;2.83;;;1.00;;
34236;SDS011;20501;45.956;13.632;2022-08-19T06:59:38;3.35;;;0.90;;
34236;SDS011;20501;45.956;13.632;2022-08-19T07:02:05;4.07;;;1.50;;
34236;SDS011;20501;45.956;13.632;2022-08-19T07:04:32;5.03;;;1.27;;
34236;SDS011;20501;45.956;13.632;2022-08-19T07:06:59;3.08;;;0.80;;
34236;SDS011;20501;45.956;13.632;2022-08-19T07:09:37;3.55;;;1.45;;
34236;SDS011;20501;45.956;13.632;2022-08-19T07:12:05;4.35;;;1.02;;
34236;SDS011;20501;45.956;13.632;2022-08-19T07:14:32;1.40;;;1.02;;
34236;SDS011;20501;45.956;13.632;2022-08-19T07:17:03;2.60;;;1.00;;
34236;SDS011;20501;45.956;13.632;2022-08-19T07:19:33;2.40;;;1.15;;
34236;SDS011;20501;45.956;13.632;2022-08-19T07:22:01;4.82;;;1.27;;
34236;SDS011;20501;45.956;13.632;2022-08-19T07:24:28;3.03;;;1.15;;
34236;SDS011;20501;45.956;13.632;2022-08-19T07:26:54;13.35;;;7.13;;
34236;SDS011;20501;45.956;13.632;2022-08-19T07:29:22;3.28;;;1.35;;
34236;SDS011;20501;45.956;13.632;2022-08-19T07:31:51;3.75;;;0.90;;
34236;SDS011;20501;45.956;13.632;2022-08-19T07:34:21;4.20;;;1.00;;
34236;SDS011;20501;45.956;13.632;2022-08-19T07:36:48;4.63;;;1.00;;
34236;SDS011;20501;45.956;13.632;2022-08-19T07:39:16;7.93;;;0.90;;
34236;SDS011;20501;45.956;13.632;2022-08-19T07:41:44;1.90;;;1.20;;
34236;SDS011;20501;45.956;13.632;2022-08-19T07:44:11;3.13;;;1.50;;
34236;SDS011;20501;45.956;13.632;2022-08-19T07:46:39;2.90;;;1.17;;
34236;SDS011;20501;45.956;13.632;2022-08-19T07:49:07;3.92;;;1.20;;
34236;SDS011;20501;45.956;13.632;2022-08-19T07:51:42;4.70;;;1.60;;
34236;SDS011;20501;45.956;13.632;2022-08-19T07:54:08;2.58;;;0.93;;
34236;SDS011;20501;45.956;13.632;2022-08-19T07:56:34;2.72;;;1.00;;
34236;SDS011;20501;45.956;13.632;2022-08-19T07:58:59;4.10;;;1.08;;
34236;SDS011;20501;45.956;13.632;2022-08-19T08:01:25;7.95;;;1.20;;
34236;SDS011;20501;45.956;13.632;2022-08-19T08:03:53;4.97;;;1.55;;
34236;SDS011;20501;45.956;13.632;2022-08-19T08:06:37;5.65;;;1.20;;
34236;SDS011;20501;45.956;13.632;2022-08-19T08:09:24;5.50;;;1.25;;
34236;SDS011;20501;45.956;13.632;2022-08-19T08:11:59;2.78;;;1.27;;
34236;SDS011;20501;45.956;13.632;2022-08-19T08:14:28;5.13;;;1.48;;
34236;SDS011;20501;45.956;13.632;2022-08-19T08:16:58;6.43;;;1.27;;
34236;SDS011;20501;45.956;13.632;2022-08-19T08:19:26;5.05;;;1.10;;
34236;SDS011;20501;45.956;13.632;2022-08-19T08:21:54;4.07;;;0.90;;
34236;SDS011;20501;45.956;13.632;2022-08-19T08:24:21;1.65;;;0.98;;
34236;SDS011;20501;45.956;13.632;2022-08-19T08:26:46;4.35;;;1.13;;
34236;SDS011;20501;45.956;13.632;2022-08-19T08:29:12;1.75;;;1.00;;
34236;SDS011;20501;45.956;13.632;2022-08-19T08:31:39;4.90;;;1.10;;
34236;SDS011;20501;45.956;13.632;2022-08-19T08:34:05;4.45;;;1.20;;
34236;SDS011;20501;45.956;13.632;2022-08-19T08:36:31;3.15;;;1.63;;
34236;SDS011;20501;45.956;13.632;2022-08-19T08:38:59;7.82;;;1.50;;
34236;SDS011;20501;45.956;13.632;2022-08-19T08:44:20;7.90;;;2.22;;
34236;SDS011;20501;45.956;13.632;2022-08-19T08:47:01;7.40;;;2.47;;
34236;SDS011;20501;45.956;13.632;2022-08-19T08:54:44;11.32;;;2.97;;
34236;SDS011;20501;45.956;13.632;2022-08-19T08:57:27;10.05;;;2.92;;
34236;SDS011;20501;45.956;13.632;2022-08-19T08:59:57;13.10;;;1.92;;
34236;SDS011;20501;45.956;13.632;2022-08-19T09:02:30;4.28;;;1.92;;
34236;SDS011;20501;45.956;13.632;2022-08-19T09:04:55;9.80;;;2.75;;
34236;SDS011;20501;45.956;13.632;2022-08-19T09:10:16;11.07;;;2.40;;
34236;SDS011;20501;45.956;13.632;2022-08-19T09:12:52;7.47;;;2.15;;
34236;SDS011;20501;45.956;13.632;2022-08-19T09:15:20;8.15;;;2.92;;
34236;SDS011;20501;45.956;13.632;2022-08-19T09:18:02;7.70;;;2.00;;
34236;SDS011;20501;45.956;13.632;2022-08-19T09:20:28;10.60;;;3.08;;
34236;SDS011;20501;45.956;13.632;2022-08-19T09:22:56;8.88;;;2.58;;
34236;SDS011;20501;45.956;13.632;2022-08-19T09:25:22;6.40;;;2.00;;
34236;SDS011;20501;45.956;13.632;2022-08-19T09:27:48;5.45;;;1.83;;
34236;SDS011;20501;45.956;13.632;2022-08-19T09:30:19;8.05;;;2.28;;
34236;SDS011;20501;45.956;13.632;2022-08-19T09:32:48;7.63;;;1.98;;
34236;SDS011;20501;45.956;13.632;2022-08-19T09:35:14;5.78;;;2.97;;
34236;SDS011;20501;45.956;13.632;2022-08-19T09:37:40;13.65;;;2.05;;
34236;SDS011;20501;45.956;13.632;2022-08-19T09:40:07;8.65;;;2.45;;
34236;SDS011;20501;45.956;13.632;2022-08-19T09:42:33;5.57;;;2.13;;
34236;SDS011;20501;45.956;13.632;2022-08-19T09:44:59;7.78;;;2.30;;
34236;SDS011;20501;45.956;13.632;2022-08-19T09:47:24;6.45;;;2.15;;
34236;SDS011;20501;45.956;13.632;2022-08-19T09:49:50;12.68;;;2.63;;
34236;SDS011;20501;45.956;13.632;2022-08-19T09:52:15;7.32;;;2.35;;
34236;SDS011;20501;45.956;13.632;2022-08-19T09:54:41;9.43;;;2.72;;
34236;SDS011;20501;45.956;13.632;2022-08-19T09:57:07;9.68;;;2.80;;
34236;SDS011;20501;45.956;13.632;2022-08-19T09:59:32;6.32;;;2.05;;
34236;SDS011;20501;45.956;13.632;2022-08-19T10:01:58;7.72;;;2.67;;
34236;SDS011;20501;45.956;13.632;2022-08-19T10:04:23;10.90;;;2.67;;
34236;SDS011;20501;45.956;13.632;2022-08-19T10:07:09;9.18;;;2.50;;
34236;SDS011;20501;45.956;13.632;2022-08-19T10:09:34;15.48;;;2.90;;
34236;SDS011;20501;45.956;13.632;2022-08-19T10:12:00;9.20;;;2.70;;
34236;SDS011;20501;45.956;13.632;2022-08-19T10:14:26;8.43;;;2.40;;
34236;SDS011;20501;45.956;13.632;2022-08-19T10:16:52;12.13;;;2.35;;
34236;SDS011;20501;45.956;13.632;2022-08-19T10:19:18;8.40;;;2.65;;
34236;SDS011;20501;45.956;13.632;2022-08-19T10:21:45;8.82;;;2.55;;
34236;SDS011;20501;45.956;13.632;2022-08-19T10:24:10;5.97;;;2.28;;
34236;SDS011;20501;45.956;13.632;2022-08-19T10:26:37;8.77;;;2.65;;
34236;SDS011;20501;45.956;13.632;2022-08-19T10:29:02;11.88;;;2.90;;
34236;SDS011;20501;45.956;13.632;2022-08-19T10:31:30;10.30;;;2.67;;
34236;SDS011;20501;45.956;13.632;2022-08-19T10:33:58;6.75;;;2.45;;
34236;SDS011;20501;45.956;13.632;2022-08-19T10:36:26;13.75;;;3.47;;
34236;SDS011;20501;45.956;13.632;2022-08-19T10:38:58;11.52;;;3.53;;
34236;SDS011;20501;45.956;13.632;2022-08-19T10:41:30;8.32;;;2.92;;
34236;SDS011;20501;45.956;13.632;2022-08-19T10:43:59;15.68;;;4.53;;
34236;SDS011;20501;45.956;13.632;2022-08-19T10:46:27;5.70;;;2.47;;
34236;SDS011;20501;45.956;13.632;2022-08-19T10:48:57;9.55;;;2.75;;
34236;SDS011;20501;45.956;13.632;2022-08-19T10:54:08;6.10;;;2.45;;
34236;SDS011;20501;45.956;13.632;2022-08-19T10:56:33;13.40;;;3.80;;
34236;SDS011;20501;45.956;13.632;2022-08-19T10:59:19;12.40;;;2.80;;
34236;SDS011;20501;45.956;13.632;2022-08-19T11:01:49;12.93;;;3.22;;
34236;SDS011;20501;45.956;13.632;2022-08-19T11:04:16;13.10;;;3.00;;
34236;SDS011;20501;45.956;13.632;2022-08-19T11:06:43;10.30;;;3.50;;
34236;SDS011;20501;45.956;13.632;2022-08-19T11:09:12;9.88;;;3.65;;
34236;SDS011;20501;45.956;13.632;2022-08-19T11:11:45;8.40;;;3.10;;
34236;SDS011;20501;45.956;13.632;2022-08-19T11:14:13;15.77;;;4.07;;
34236;SDS011;20501;45.956;13.632;2022-08-19T11:16:46;10.55;;;3.42;;
34236;SDS011;20501;45.956;13.632;2022-08-19T11:19:13;10.65;;;3.53;;
34236;SDS011;20501;45.956;13.632;2022-08-19T11:21:43;18.55;;;5.03;;
34236;SDS011;20501;45.956;13.632;2022-08-19T11:24:12;20.38;;;5.68;;
34236;SDS011;20501;45.956;13.632;2022-08-19T11:26:40;15.68;;;3.85;;
34236;SDS011;20501;45.956;13.632;2022-08-19T11:29:07;18.20;;;6.15;;
34236;SDS011;20501;45.956;13.632;2022-08-19T11:31:38;25.52;;;6.28;;
34236;SDS011;20501;45.956;13.632;2022-08-19T11:34:06;16.58;;;5.20;;
34236;SDS011;20501;45.956;13.632;2022-08-19T11:36:34;19.45;;;5.93;;
34236;SDS011;20501;45.956;13.632;2022-08-19T11:39:04;25.55;;;5.25;;
34236;SDS011;20501;45.956;13.632;2022-08-19T11:41:31;16.15;;;5.20;;
34236;SDS011;20501;45.956;13.632;2022-08-19T11:43:56;18.92;;;4.78;;
34236;SDS011;20501;45.956;13.632;2022-08-19T11:46:22;11.88;;;4.32;;
34236;SDS011;20501;45.956;13.632;2022-08-19T11:48:50;16.88;;;5.18;;
34236;SDS011;20501;45.956;13.632;2022-08-19T11:51:20;21.08;;;5.22;;
34236;SDS011;20501;45.956;13.632;2022-08-19T11:53:47;18.02;;;4.68;;
34236;SDS011;20501;45.956;13.632;2022-08-19T11:56:14;18.60;;;6.13;;
34236;SDS011;20501;45.956;13.632;2022-08-19T11:58:40;17.75;;;4.75;;
34236;SDS011;20501;45.956;13.632;2022-08-19T12:03:33;15.00;;;4.72;;
34236;SDS011;20501;45.956;13.632;2022-08-19T12:06:02;17.70;;;6.00;;
34236;SDS011;20501;45.956;13.632;2022-08-19T12:08:29;19.90;;;5.22;;
34236;SDS011;20501;45.956;13.632;2022-08-19T12:10:55;15.98;;;4.85;;
34236;SDS011;20501;45.956;13.632;2022-08-19T12:13:20;16.75;;;5.25;;
34236;SDS011;20501;45.956;13.632;2022-08-19T12:15:46;20.67;;;5.63;;
34236;SDS011;20501;45.956;13.632;2022-08-19T12:18:13;23.63;;;5.38;;
34236;SDS011;20501;45.956;13.632;2022-08-19T12:20:39;21.05;;;4.85;;
34236;SDS011;20501;45.956;13.632;2022-08-19T12:23:07;20.90;;;5.65;;
34236;SDS011;20501;45.956;13.632;2022-08-19T12:25:34;21.42;;;5.50;;
34236;SDS011;20501;45.956;13.632;2022-08-19T12:28:01;21.52;;;5.88;;
34236;SDS011;20501;45.956;13.632;2022-08-19T12:30:27;18.38;;;5.20;;
34236;SDS011;20501;45.956;13.632;2022-08-19T12:32:53;16.80;;;5.32;;
34236;SDS011;20501;45.956;13.632;2022-08-19T12:35:19;24.35;;;5.10;;
34236;SDS011;20501;45.956;13.632;2022-08-19T12:37:48;20.23;;;5.60;;
34236;SDS011;20501;45.956;13.632;2022-08-19T12:40:14;15.40;;;5.20;;
34236;SDS011;20501;45.956;13.632;2022-08-19T12:45:08;12.30;;;4.82;;
34236;SDS011;20501;45.956;13.632;2022-08-19T12:47:35;20.15;;;5.72;;
34236;SDS011;20501;45.956;13.632;2022-08-19T12:50:01;10.57;;;3.88;;
34236;SDS011;20501;45.956;13.632;2022-08-19T12:52:26;14.77;;;5.15;;
34236;SDS011;20501;45.956;13.632;2022-08-19T12:54:55;23.10;;;4.68;;
34236;SDS011;20501;45.956;13.632;2022-08-19T12:57:23;17.92;;;4.75;;
34236;SDS011;20501;45.956;13.632;2022-08-19T12:59:51;13.75;;;4.22;;
34236;SDS011;20501;45.956;13.632;2022-08-19T13:02:18;14.15;;;4.30;;
34236;SDS011;20501;45.956;13.632;2022-08-19T13:04:44;14.90;;;4.33;;
34236;SDS011;20501;45.956;13.632;2022-08-19T13:07:10;15.77;;;4.63;;
34236;SDS011;20501;45.956;13.632;2022-08-19T13:09:35;11.43;;;3.92;;
34236;SDS011;20501;45.956;13.632;2022-08-19T13:12:01;14.25;;;3.75;;
34236;SDS011;20501;45.956;13.632;2022-08-19T13:14:28;14.38;;;3.90;;
34236;SDS011;20501;45.956;13.632;2022-08-19T13:16:55;12.10;;;3.60;;
34236;SDS011;20501;45.956;13.632;2022-08-19T13:19:22;9.02;;;3.45;;
34236;SDS011;20501;45.956;13.632;2022-08-19T13:21:51;19.48;;;3.60;;
34236;SDS011;20501;45.956;13.632;2022-08-19T13:24:17;15.45;;;3.67;;
34236;SDS011;20501;45.956;13.632;2022-08-19T13:26:43;9.00;;;3.17;;
34236;SDS011;20501;45.956;13.632;2022-08-19T13:29:08;19.92;;;3.63;;
34236;SDS011;20501;45.956;13.632;2022-08-19T13:31:52;10.77;;;3.50;;
34236;SDS011;20501;45.956;13.632;2022-08-19T13:34:36;11.52;;;3.53;;
34236;SDS011;20501;45.956;13.632;2022-08-19T13:37:02;13.17;;;3.27;;
34236;SDS011;20501;45.956;13.632;2022-08-19T13:41:55;13.48;;;3.97;;
34236;SDS011;20501;45.956;13.632;2022-08-19T13:44:20;10.73;;;3.37;;
34236;SDS011;20501;45.956;13.632;2022-08-19T13:46:47;12.40;;;3.33;;
34236;SDS011;20501;45.956;13.632;2022-08-19T13:49:14;10.88;;;3.08;;
34236;SDS011;20501;45.956;13.632;2022-08-19T13:51:40;12.75;;;4.18;;
34236;SDS011;20501;45.956;13.632;2022-08-19T13:54:07;10.45;;;3.75;;
34236;SDS011;20501;45.956;13.632;2022-08-19T13:58:59;12.38;;;3.13;;
34236;SDS011;20501;45.956;13.632;2022-08-19T14:01:25;11.27;;;3.33;;
34236;SDS011;20501;45.956;13.632;2022-08-19T14:03:51;11.95;;;3.40;;
34236;SDS011;20501;45.956;13.632;2022-08-19T14:06:17;13.82;;;3.45;;
34236;SDS011;20501;45.956;13.632;2022-08-19T14:08:43;6.37;;;2.70;;
34236;SDS011;20501;45.956;13.632;2022-08-19T14:11:09;10.27;;;2.00;;
34236;SDS011;20501;45.956;13.632;2022-08-19T14:13:35;4.65;;;2.35;;
34236;SDS011;20501;45.956;13.632;2022-08-19T14:16:00;6.47;;;2.53;;
34236;SDS011;20501;45.956;13.632;2022-08-19T14:18:31;8.73;;;2.75;;
34236;SDS011;20501;45.956;13.632;2022-08-19T14:20:57;5.30;;;1.93;;
34236;SDS011;20501;45.956;13.632;2022-08-19T14:23:22;5.83;;;2.13;;
34236;SDS011;20501;45.956;13.632;2022-08-19T14:25:47;5.47;;;2.63;;
34236;SDS011;20501;45.956;13.632;2022-08-19T14:28:13;9.32;;;2.70;;
34236;SDS011;20501;45.956;13.632;2022-08-19T14:30:38;6.20;;;2.42;;
34236;SDS011;20501;45.956;13.632;2022-08-19T14:33:04;7.88;;;2.63;;
34236;SDS011;20501;45.956;13.632;2022-08-19T14:35:32;11.88;;;2.65;;
34236;SDS011;20501;45.956;13.632;2022-08-19T14:37:59;13.07;;;3.22;;
34236;SDS011;20501;45.956;13.632;2022-08-19T14:40:26;10.07;;;3.15;;
34236;SDS011;20501;45.956;13.632;2022-08-19T14:42:53;13.07;;;3.13;;
34236;SDS011;20501;45.956;13.632;2022-08-19T14:45:24;8.45;;;3.33;;
34236;SDS011;20501;45.956;13.632;2022-08-19T14:47:52;9.30;;;2.95;;
34236;SDS011;20501;45.956;13.632;2022-08-19T14:50:18;10.23;;;2.90;;
34236;SDS011;20501;45.956;13.632;2022-08-19T14:52:45;9.00;;;3.22;;
34236;SDS011;20501;45.956;13.632;2022-08-19T14:55:12;9.60;;;3.20;;
34236;SDS011;20501;45.956;13.632;2022-08-19T14:57:40;8.65;;;3.53;;
34236;SDS011;20501;45.956;13.632;2022-08-19T15:02:32;9.60;;;3.55;;